International TAF

Brunei, China, Hong Kong, Malaysia, Philippines, Taiwan

The availability of aerodrome forecasts from overseas locations is dependent on the regular international exchange of data. Some locations may at times be absent. If this problem persists, please advise webav@bom.gov.au

 back to top

ZSPD 22/06/2017 UTC

TAF ZSPD 220919Z 2212/2312 10004MPS 3000 BR BKN005 TX26/2306Z
TN20/2221Z PROB40 TEMPO 2217/2223 1200 BR BKN003 PROB40 TEMPO
2306/2312
TSRA BKN005 FEW030CB

WIDD 22/06/2017 UTC

TAF WIDD 221100Z 2212/2312 18005KT 9999 SCT014
BECMG 2214/2216 00000KT

WAMM 22/06/2017 UTC

TAF WAMM 221100Z 2212/2318 10002KT 9000 SCT020
PROB40 TEMPO 2216/2220 6000 -RA SCT018
BECMG 2223/2301 VRB02KT

WBSB 22/06/2017 UTC

TAF WBSB 221100Z 2212/2318 20003KT 9999 FEW015 FEW016CB
TEMPO 2214/2216 7000 SHRA TSRA
BECMG 2303/2305 26010KT SCT016 FEW017CB

WBKK 22/06/2017 UTC

TAF WBKK 221100Z 2212/2312 11005KT 9999 FEW014

WBGG 22/06/2017 UTC

TAF WBGG 221100Z 2212/2312 22005KT 9999 FEW020 SCT150 BKN300
TEMPO 2212/2215 5000 RA FEW005 SCT020 BKN150

VHHH 22/06/2017 UTC

TAF VHHH 221100Z 2212/2318 20010KT 9999 FEW015 SCT030 TX33/2306Z
TN29/2223Z

VMMC 22/06/2017 UTC

TAF VMMC 221100Z 2212/2318 18010KT 9999 FEW010 SCT020

ZGSZ 22/06/2017 UTC

TAF ZGSZ 220903Z 2212/2312 19004MPS 6000 FEW040 TX32/2307Z
TN28/2222Z
TEMPO 2303/2309 SCT015 FEW025CB BKN033

RCTP 22/06/2017 UTC

TAF RCTP 221100Z 2212/2318 22010KT 9999 FEW015
TEMPO 2218/2224 20005KT
BECMG 2301/2303 25015KT
BECMG 2310/2312 23010KT

RCKH 22/06/2017 UTC

TAF RCKH 221100Z 2212/2318 25005KT 9999 FEW015 SCT035
TEMPO 2218/2224 08005KT
TEMPO 2305/2310 27010KT
BECMG 2315/2317 09005KT

ZGGG 22/06/2017 UTC

TAF ZGGG 220900Z 2212/2312 16003MPS 8000 BKN033 TX32/2306Z
TN26/2222Z

ZBAA 22/06/2017 UTC

TAF ZBAA 220930Z 2212/2312 09004MPS 3500 -RA BR OVC040 TX25/2307Z
TN18/2221Z TEMPO 2212/2218 2500 RA TEMPO 2306/2312 -TSRA FEW040CB
BKN040

ZSSS 22/06/2017 UTC

TAF ZSSS 220913Z 2212/2312 11004MPS 6000 BKN008 TX26/2306Z
TN21/2221Z
BECMG 2302/2303 BKN015 PROB40 TEMPO 2306/2312 2500 TSRA BR BKN007
FEW030CB OVC040

ZBTJ 22/06/2017 UTC

TAF ZBTJ 220908Z 2212/2312 12006MPS 3000 -RA BR BKN030 TX24/2307Z
TN18/2221Z BECMG 2215/2216 20004MPS BECMG 2300/2301 34005MPS TEMPO
2215/2218
RA TEMPO 2306/2310 -TSRA FEW030CB BKN040

ZBYN 22/06/2017 UTC

TAF ZBYN 220911Z 2212/2312 09004MPS 6000 NSC TX26/2307Z TN17/2221Z
TEMPO 2212/2214 -TSRA FEW030CB SCT040

ZSHC 22/06/2017 UTC

TAF COR ZSHC 221015Z 2212/2312 10003MPS 3000 BR BKN020 TX27/2306Z
TN22/2221Z TEMPO 2306/2312 2300 SHRA BKN020 FEW030CB

ZSOF 22/06/2017 UTC

TAF ZSOF 220900Z 221212 16004MPS 5000 HZ BKN030 TX29/06Z TN23/21Z

ZWWW 22/06/2017 UTC

TAF ZWWW 220906Z 2212/2312 23004G09MPS 9999 FEW040CB TX31/2308Z
TN26/2223Z BECMG 2214/2215 17004MPS CAVOK BECMG 2303/2304
33007G12MPS
9999 FEW040CB BKN040

ZYTL 22/06/2017 UTC

TAF ZYTL 220907Z 2212/2312 13004MPS 5000 BR FEW040 TX27/2306Z
TN19/2221Z BECMG 2300/2301 18004MPS

RPLL 22/06/2017 UTC

TAF RPLL 221100Z 2212/2318 26005KT 9999 FEW025 SCT100 TX33/2306Z
TN24/2222Z TEMPO 2212/2218 24006KT 9000 -TSRA FEW20CB SCT023
OVC100 TEMPO 2218/2224 VRB03KT 9000 -SHRA FEW023 BKN100

RPVM 22/06/2017 UTC

TAF RPVM 221100Z 2212/2318 22006KT 9999 FEW020 BKN300
TEMPO 2212/2218 24008KT 8000 -TSRA FEW018CB SCT020 OVC090
TEMPO 2218/2224 25005KT 9000 -TSRA FEW018CB SCT020 BKN100

RPMZ 22/06/2017 UTC

TAF RPMZ 221100Z 2212/2312 16004KT 9999 FEW018 BKN300
TEMPO 2212/2218 00000KT 9000 -SHRA SCT017 BKN100 OVC300

Australian International

The availability of aerodrome forecasts from overseas locations is dependent on the regular international exchange of data. Some locations may at times be absent. If this problem persists, please advise webav@bom.gov.au

 back to top

YMML 22/06/2017 UTC

TAF YMML 221103Z 2212/2318
36012KT CAVOK
FM230000 35017G28KT CAVOK
FM230700 31013KT 9999 SCT045
FM231200 28012KT 9999 -SHRA SCT020 BKN040
INTER 2312/2316 5000 SHRA BKN015
RMK FM221700 MOD TURB BLW 5000FT TILL231400
T 09 08 07 07 Q 1022 1021 1019 1018

YSSY 22/06/2017 UTC

TAF YSSY 221101Z 2212/2318
29008KT CAVOK
PROB30 2219/2223 0500 FG
RMK FM231200 MOD TURB BLW 5000FT
T 14 12 10 10 Q 1023 1022 1020 1020

YBBN 22/06/2017 UTC

TAF YBBN 221101Z 2212/2318
20005KT 9999 SCT030
FM230400 04007KT 9999 SCT040
FM230900 30005KT CAVOK
RMK
T 14 13 12 12 Q 1024 1022 1022 1022

YSCB 22/06/2017 UTC

TAF YSCB 221109Z 2212/2312
VRB03KT 9999 FEW010
BECMG 2223/2224 30006KT 9999 BKN005
BECMG 2300/2302 29013KT 9999 FEW030
FM231000 29008KT 9999 FEW020
PROB40 2214/2215 0300 FG BKN002
PROB40 2215/2223 0300 FZFG BKN001
PROB30 2223/2224 0600 FG BKN002
RMK
T 02 00 M01 00 Q 1023 1022 1021 1021

YBCS 22/06/2017 UTC

TAF YBCS 221139Z 2212/2312
16010KT 9999 -SHRA FEW022 BKN040
FM230000 13015KT 9999 -SHRA SCT025 BKN045
FM230900 16010KT 9999 -SHRA FEW022 BKN040
INTER 2302/2312 4000 -SHRA BKN015
RMK
T 21 21 21 21 Q 1019 1018 1017 1018

YBAS 22/06/2017 UTC

TAF YBAS 221111Z 2212/2312
09005KT CAVOK
FM221300 30005KT CAVOK
FM230000 05008KT CAVOK
RMK
T 13 09 07 06 Q 1022 1021 1020 1020

YBMA 22/06/2017 UTC

TAF YBMA 221027Z 2212/2224
VRB03KT CAVOK
FM221800 10005KT CAVOK
FM222300 07010KT CAVOK
RMK
T 14 12 13 14 Q 1019 1019 1018 1019

YPAD 22/06/2017 UTC

TAF YPAD 221107Z 2212/2318
05006KT CAVOK
FM230000 35012KT CAVOK
FM230300 31010KT CAVOK
FM230800 VRB05KT 9999 SCT025 SCT035
RMK
T 09 08 07 07 Q 1021 1020 1019 1019

YPDN 22/06/2017 UTC

TAF YPDN 221113Z 2212/2318
17005KT CAVOK
FM222000 11005KT 9999 FEW020
FM230000 10011KT CAVOK
FM230600 33008KT CAVOK
RMK
T 24 21 21 21 Q 1015 1015 1014 1015

YPTN 22/06/2017 UTC

TAF YPTN 221049Z 2212/2312
11008KT CAVOK
RMK
T 19 18 17 17 Q 1015 1015 1015 1015

YPPH 22/06/2017 UTC

TAF YPPH 221114Z 2212/2318
15010KT 9999 -SHRA BKN020
FM221500 13015G25KT 9999 -SHRA BKN020
FM230300 12018KT 9999 -SHRA BKN030
FM231200 12014G24KT 9999 -SHRA BKN025
INTER 2212/2224 4000 SHRA BKN010
RMK
FM221500 MOD TURB BLW 3000FT TILL222000
FM222000 MOD/SEV TURB BLW 3000FT TILL230100
FM230100 MOD TURB BLW 3000FT TILL230300
T 13 12 12 13 Q 1010 1011 1012 1014

YPLM 22/06/2017 UTC

TAF YPLM 221112Z 2212/2312
20014KT CAVOK
FM222000 16012KT CAVOK
FM230800 20012KT CAVOK
RMK
T 18 15 13 11 Q 1018 1019 1018 1018

YCAR 22/06/2017 UTC

TAF YCAR 220212Z 2204/2212
20014KT CAVOK
RMK
T 21 19 17 Q 1019 1018 1019

YPCC 22/06/2017 UTC

TAF AMD YPCC 221113Z 2211/2312
13020KT 9999 -SHRA BKN020
TEMPO 2211/2312 3000 SHRA BKN008
RMK
T 25 26 26 26 Q 1013 1013 1013 1012

YPPD 22/06/2017 UTC

TAF YPPD 221112Z 2212/2312
31008KT CAVOK
FM221500 20008KT CAVOK
FM230000 15008KT CAVOK
FM230500 30008KT CAVOK
RMK
T 20 18 17 16 Q 1015 1015 1014 1014

YBTL 22/06/2017 UTC

TAF YBTL 221134Z 2212/2312
13010KT 9999 FEW025 SCT040
FM222200 12014KT 9999 FEW025 SCT040
FM230300 08016KT 9999 FEW035
FM230900 13007KT 9999 FEW025 SCT040
RMK
T 20 17 16 15 Q 1020 1020 1019 1019

YMHB 22/06/2017 UTC

TAF YMHB 221106Z 2212/2312
34012KT 9999 FEW040
FM222300 33015KT 9999 FEW040
FM230100 33015G30KT 9999 -SHRA FEW030 BKN045
FM230400 28015G25KT 9999 -SHRA SCT030 BKN040
FM230900 30014KT 9999 -SHRA SCT035
INTER 2303/2308 31020G35KT 5000 SHRA BKN020
RMK FM221200 MOD TURB BLW 5000FT TILL221800
FM221800 SEV TURB BLW 5000FT TILL230500
FM230500 MOD TURB BLW 5000FT
T 06 07 07 08 Q 1016 1014 1011 1009

YPXM 22/06/2017 UTC

TAF YPXM 221113Z 2212/2312
12012KT 9999 -SHRA BKN008
INTER 2214/2312 3000 SHRA BKN005
RMK
T 25 25 25 25 Q 1013 1014 1014 1013

New Zealand

The availability of aerodrome forecasts from overseas locations is dependent on the regular international exchange of data. Some locations may at times be absent. If this problem persists, please advise webav@bom.gov.au

 back to top

NZAA 22/06/2017 UTC

TAF NZAA 221106Z 2212/2312 13010KT 9999 -SHRA SCT008 BKN020
TEMPO 2212/2304 4000 SHRA BKN008 FEW020CB
BECMG 2218/2220 03015KT
TEMPO 2304/2312 4000 SHRA BKN012 FEW020CB

NZWN 22/06/2017 UTC

TAF NZWN 221106Z 2212/2312 18025G35KT 9999 -RA BKN012
TEMPO 2212/2302 4000 RA BKN006
BECMG 2301/2303 BKN020
TEMPO 2302/2312 6000 SHRA BKN012
BECMG 2310/2312 17018KT

NZCH 22/06/2017 UTC

TAF NZCH 221106Z 2212/2312 22012KT 9999 -RA BKN040
TEMPO 2214/2217 4000 SHRA BKN012
TEMPO 2217/2304 4000 RA BKN008
TEMPO 2304/2308 6000 SHRA BKN012

YLHI 22/06/2017 UTC

TAF YLHI 221109Z 2212/2312
20014KT 9999 -SHRA SCT020 BKN035
FM222000 19010KT 9999 -SHRA SCT020 BKN040
FM230000 22008KT 9999 SCT040
RMK
T 17 17 16 17 Q 1021 1020 1019 1020

YSNF 22/06/2017 UTC

TAF YSNF 221109Z 2212/2312
23015G25KT 9999 -SHRA BKN012
FM221500 22020G30KT 9999 -SHRA SCT012 BKN020
FM230000 22020G30KT 9999 -SHRA SCT025 BKN035
INTER 2212/2300 5000 SHRA BKN006
RMK FM221200 MOD TURB BLW 5000FT TILL222200
T 17 17 17 18 Q 1010 1010 1011 1013

Indonesia, Malaysia, Myanmar, Singapore, Thailand, Vietnam

The availability of aerodrome forecasts from overseas locations is dependent on the regular international exchange of data. Some locations may at times be absent. If this problem persists, please advise webav@bom.gov.au

 back to top

WADA

TAF not available.

WAAA 22/06/2017 UTC

TAF WAAA 221100Z 2212/2318 13003KT 8000 FEW020 SCT100 BECMG 2302/2304 30010KT 9000 SCT019
BECMG 2310/2312 14003KT 8000

WIII 22/06/2017 UTC

TAF WIII 221100Z 2212/2318 VRB03KT 7000 SCT021 TEMPO 2219/2222 SHRA
FEW015CB BECMG 2302/2304 06010KT TEMPO 2307/2310 VCTS FEW015CB BECMG
2310/2312 VRB03KT

WIHH 22/06/2017 UTC

TAF WIHH 221100Z 2212/2312 05008KT 6000 SCT018
BECMG 2215/2217 22004KT 5000 HZ SCT020
TEMPO 2218/2221 30008KT 3000 -RA BKN017
BECMG 2301/2303 12006KT 6000 SCT022

WIMM 22/06/2017 UTC

TAF WIMM 221100Z 2212/2312 VRB05KT 4000 HZ FEW017CB SCT018
TEMPO 2214/2218 -TSRA
BECMG 2301/2303 03008KT 8000 NSW SCT018

WIPP 22/06/2017 UTC

TAF WIPP 221100Z 2212/2312 14007KT 9999 SCT013
TEMPO 2221/2224 1500 BR
PROB30 TEMPO 2308/2312 5000 RA BKN012 FEW015CB

WIKD

TAF not available.

WARR 22/06/2017 UTC

TAF WARR 221100Z 2212/2312 04005KT 7000 SCT020
TEMPO 2222/2300 28004KT 4000 HZ FEW020
BECMG 2300/2302 10015KT 9999 FEW020
PROB40 TEMPO 2308/2311 8000 RA SCT018CB

WADD 22/06/2017 UTC

TAF WADD 221100Z 2212/2312 09010KT 9999 SCT016
BECMG 2223/2301 10015KT

WRRA

TAF not available.

WALL 22/06/2017 UTC

TAF WALL 221100Z 2212/2318 12002KT 9999 FEW020 BECMG 2212/2214 00000KT SCT018 BECMG
2303/2305 20003KT

WSSS 22/06/2017 UTC

TAF WSSS 221100Z 2212/2318 19008KT 9999 FEW018CB SCT020
TEMPO 2302/2306 3000 TSRA FEW012CB BKN015

WSAP 22/06/2017 UTC

TAF WSAP 221100Z 2212/2318 19008KT 9999 FEW018CB SCT020
TEMPO 2302/2306 3000 TSRA FEW012CB BKN015

WMKK 22/06/2017 UTC

TAF WMKK 221100Z 2212/2318 15005KT 9999 FEW017CB SCT140 BKN280
TEMPO 2222/2302 5000 TSRA FEW015CB SCT018

WMSA 22/06/2017 UTC

TAF WMSA 221100Z 2212/2312 16005KT 9999 FEW017CB SCT140 BKN280
PROB30 TEMPO 2222/2302 5000 TSRA FEW015CB SCT018
TEMPO 2306/2310 4000 TSRA FEW015CB SCT018

WMKP 22/06/2017 UTC

TAF WMKP 221100Z 2212/2312 03005KT 9000 FEW025 SCT140 BKN270
TEMPO 2212/2216 6000 -TSRA FEW010 FEW017CB SCT025 BKN270
TEMPO 2220/2300 6000 -TSRA FEW012 FEW017CB SCT023 BKN260

WMKJ 22/06/2017 UTC

TAF WMKJ 221100Z 2212/2312 20005KT 9999 FEW017CB SCT140 BKN280
TEMPO 2222/2302 5000 TSRA FEW015CB SCT018
TEMPO 2306/2310 4000 TSRA FEW015CB SCT018

WMKD 22/06/2017 UTC

TAF WMKD 221100Z 2212/2312 15005KT 9999 FEW016CB SCT020 BKN260 TEMPO
2212/2215 6000 -TSRA PROB30 TEMPO 2309/2312 7000 -TSRA

WMKB 22/06/2017 UTC

TAF WMKB 221100Z 2212/2312 08005KT 8000 FEW024 BKN260

VTBD 22/06/2017 UTC

TAF VTBD 221100Z 2212/2318 21008KT 9999 FEW020 SCT040
BECMG 2216/2218 27005KT FEW020
BECMG 2302/2304 21008KT
TEMPO 2309/2313 26015KT 6000 -TSRA FEW018CB SCT030
BECMG 2316/2318 27005KT

VTBS 22/06/2017 UTC

TAF VTBS 221100Z 2212/2318 20008KT 9999 FEW020 SCT040
BECMG 2216/2218 26005KT FEW020
BECMG 2302/2304 20010KT
TEMPO 2309/2312 24015KT 6000 -TSRA FEW018CB SCT030
BECMG 2316/2318 26005KT

VTBU 22/06/2017 UTC

TAF VTBU 221100Z 2212/2312 20008KT 9000 FEW020CB SCT100
TEMPO 2213/2218 VRB12KT 5000 -TSRA FEW018CB SCT035
BECMG 2218/2220 26004KT 7000

VTCC 22/06/2017 UTC

TAF VTCC 221100Z 2212/2318 22005KT 9999 SCT040
TEMPO 2309/2311 20010G25KT 4000 TSRA FEW020CB

VTSP 22/06/2017 UTC

TAF VTSP 221100Z 2212/2318 28010KT 8000 SCT018 BKN100
TEMPO 2219/2223 28010G25KT 4000 TSRA SHRA FEW016CB SCT020 BKN100
TEMPO 2301/2305 28010G25KT 4000 TSRA SHRA FEW016CB SCT020 BKN100

VTSS 22/06/2017 UTC

TAF VTSS 221100Z 2212/2312 VRB02KT 9999 FEW020 BKN100
PROB30 TEMPO 2212/2215 VRB10KT 7000 -RA SCT015 BKN100
BECMG 2302/2304 22010KT TEMPO 2305/2311 VRB13KT 6000 -TSRA
FEW016CB SCT018 BKN100

VVTS 22/06/2017 UTC

TAF VVTS 221100Z 2212/2318 23010KT 9999 SCT015 SCT040
TEMPO 2212/2214 5000 TSRA BKN013 FEW015CB
TEMPO 2305/2310 25015G25KT 3000 TSRA BKN013 SCT015CB

VDPP 22/06/2017 UTC

TAF VDPP 221100Z 2212/2306 28006KT 9000 SCT017 SCT040
TEMPO 2212/2216 6000 -TSRA SCT015 FEW017CB BKN040

VVNB 22/06/2017 UTC

TAF VVNB 221100Z 2212/2312 10010KT 9999 FEW023 BKN120
TEMPO 2212/2216 VRB15G30KT 3500 TSRA SCT017 FEW030CB BKN100

VYYY 22/06/2017 UTC

TAF VYYY 221100Z 2212/2312 23010KT 7000 BKN015 FEW018CB OVC090
BECMG 2212/2214 4000 -RA BKN014 FEW016CB OVC080
TEMPO 2214/2218 5000 -RA

South America

The availability of aerodrome forecasts from overseas locations is dependent on the regular international exchange of data. Some locations may at times be absent. If this problem persists, please advise webav@bom.gov.au

 back to top

SAEZ 22/06/2017 UTC

TAF SAEZ 221100Z 2212/2312 35010G20KT 5000 -BRDZ BKN007 TX20/2218Z
TN14/2212Z BECMG 2215/2218 8000 -BRDZ BKN010 OVC040 BECMG 2300/2303
36008 9999 SCT020 BKN040 PROB30 2306/2312 01010KT 5000 RADZ BKN007
OVC050

SAVC 22/06/2017 UTC

TAF SAVC 221100Z 2212/2312 32015KT CAVOK
TX12/2219Z TNM01/2310Z BECMG 2214/2216 9999 FEW030 BKN080
BECMG 2221/2223 21015KT 6000 -RASN BKN020 SCT050
PROB30 TEMPO 2223/2306 4000 +SN OVC010 SCT030

SCIE 22/06/2017 UTC

TAF SCIE 221030Z 2212/2312 33010KT 9999 BKN025 TX13/2219Z
TN07/2310Z
BECMG 2213/2215 SCT030 BKN050
BECMG 2218/2220 01005KT SCT040
BECMG 2302/2304 28005KT

SACO 22/06/2017 UTC

TAF SACO 221100Z 2212/2312 34005KT CAVOK
TX25/2218Z TN08/2310Z BECMG 2214/2217 02015KT

SCIP 22/06/2017 UTC

TAF SCIP 221020Z 2212/2312 24010KT 9999 FEW020 SCT030 TX22/2220Z
TN18 /2310Z
TEMPO 2212/2214 27015KT 7000 -SHRA BKN020
BECMG 2215/2217 21015KT SCT020
TEMPO 2220/2300 18020KT
BECMG 2302/2304 16015KT FEW020 SCT250
TEMPO 2308/2310 13010KT SCT020 BKN250

SAZM 22/06/2017 UTC

TAF SAZM 221100Z 2212/2312 36010KT CAVOK TX13/2218Z TN09/2310Z
BECMG 2215/2218 34020KT 9999 SCT025
TEMPO 2300/2303 32005KT 7000 10 BKN015 PROB40 2309/2312
VRB03KT 5000 RA BKN035 BKN100

SAME 22/06/2017 UTC

TAF SAME 221100Z 2212/2312 27010KT 9999 FEW040 SCT100 TX22/2220Z
TN01/2310Z TEMPO 2212/2214 27005KT 5000 FUHZ NSC BECMG 2215/2217
29015G30KT 3000 PO FEW050 SCT090

SUMU 22/06/2017 UTC

TAF SUMU 221130Z 2212/2318 36015KT CAVOK TX22/2218Z TN14/2310Z PROB40
TEMPO 2212/2221 36015G25KT

SAZN

TAF not available.

SCTE 22/06/2017 UTC

TAF SCTE 221024Z 2212/2312 01020G30KT 4000 -RA SCT015 OVC025
TX10/2218Z TN06/2309Z
BECMG 2213/2215 36025G40KT 6000LVA0796 221130 GG MPZZMAMX
MROCYMYX MUHAYMYX 221130 SPIMYZYX FTPR56 SPIM 221100 SPHI
221100Z 2212/2312 19005KT 9999 OVC020 TX26/2220Z TN18/2311Z
BECMG 2214/2216 18010KT FEW012 SCT025
FM221800 19014KT CAVOK
BECMG 2302/2304 17008KT 9999 BKN012

SCCI 22/06/2017 UTC

TAF SCCI 221054Z 2212/2312 24020G30KT 9000 -SHRASN -SHSN FEW015
SCT030
TX02/2216Z TNM05/2312Z
BECMG 2217/2219 3000 -SHSN BKN010
TEMPO 2223/2309 1500 SHSN OVC005

SAWG 22/06/2017 UTC

TAF SAWG 221100Z 2212/2312 23018KT 9999 SCT020 BKN080 TX03/2219Z
TNM06/2310Z
BECMG 2302/2304 27025G35KT CAVOK

SAAR 22/06/2017 UTC

TAF SAAR 221100Z 2212/2312 35015KT 9999 SCT008 BKN010 TX23/2218Z
TN16/2308Z BECMG 2213/2214 BKN010 SCT100 BECMG 2214/2216 SCT025
BKN100

SAZS 22/06/2017 UTC

TAF SAZS 221100Z 2212/2312 VRB03KT 5000 RA BKN010 BKN040
TX04/2218Z
TN01/2309Z
BECMG 2215/2217 30020G30KT 8000 RA SCT010 BKN015
BKN040

SCEL 22/06/2017 UTC

TAF SCEL 221030Z 2212/2312 17006KT 9999 BKN060 BKN100 TX12/2219Z
TN07/2310Z TEMPO 2212/2218 7000 SHRA SCT020 BKN060 BECMG
2218/2220 6000 -SHRA BECMG 2306/2308 SCT030 BKN150

SAWH 22/06/2017 UTC

TAF SAWH 221100Z 2212/2312 25020G30KT 6000 -SNRA TX03/2219Z
TNM06/2310Z
TEMPO 23025G40KT 1000 +SN FEW006 OVC010

Guam, Japan, Korea

The availability of aerodrome forecasts from overseas locations is dependent on the regular international exchange of data. Some locations may at times be absent. If this problem persists, please advise webav@bom.gov.au

 back to top

PGUA 22/06/2017 UTC

TAF PGUA 221000Z 2210/2316 09009KT 9999 SCT020 QNH2984INS
TEMPO 2210/2216 8000 -SHRA BKN015 TX31/2304Z TN26/2215Z

PGUM 22/06/2017 UTC

TAF PGUM 221120Z 2212/2318 05010KT P6SM VCSH FEW018 SCT120

PGSN 22/06/2017 UTC

TAF PGSN 221120Z 2212/2312 07010KT P6SM VCSH FEW018 SCT110

PTRO 22/06/2017 UTC

TAF PTRO 221120Z 2212/2312 VRB05KT P6SM VCSH FEW016 SCT120

RJOO

22/06/2017 UTC

TAF RJOO 221105Z 2212/2318 26004KT 9999 FEW035 BECMG 2300/2303
22005KT BECMG 2312/2315 32005KT

RJOB 22/06/2017 UTC

TAF RJOB 221111Z 2212/2318 05004KT 9999 FEW025 BECMG 2303/2306
18005KT BECMG 2309/2312 36005KT

RJGG 22/06/2017 UTC

TAF RJGG 221108Z 2212/2318 20004KT 9999 FEW030 BECMG 2213/2215
34006KT BECMG 2300/2303 16012KT BECMG 2315/2318 06004KT

RJCC 22/06/2017 UTC

TAF RJCC 221105Z 2212/2318 34013KT 9999 FEW008 BKN030 TEMPO
2215/2218 FEW005 BKN008 TEMPO 2218/2222 3000 BR FEW003
BKN005 TEMPO 2222/2300 FEW005 BKN008

RJSS 22/06/2017 UTC

TAF RJSS 221107Z 2212/2318 30003KT 9999 FEW030 BECMG 2222/2300
14010KT BECMG 2312/2315 32003KT

RJFK 22/06/2017 UTC

TAF RJFK 221106Z 2212/2318 10003KT 8000 FEW005 SCT010 BKN015 TEMPO
2212/2215 FEW002 BKN008 BKN010 TEMPO 2218/2300 3000 -RA BR
FEW002 BKN005 BKN010

RJAA 22/06/2017 UTC

TAF RJAA 221105Z 2212/2318 14005KT 8000 FEW030 BECMG 2214/2216
36005KT BECMG 2300/2303 12012KT

RJBB 22/06/2017 UTC

TAF RJBB 221107Z 2212/2318 21005KT 9999 FEW035 BECMG 2216/2218
08004KT BECMG 2300/2303 25005KT BECMG 2315/2318 12004KT

RJTT 22/06/2017 UTC

TAF RJTT 221105Z 2212/2318 22006KT 9999 FEW020 BECMG 2215/2217
02006KT BECMG 2300/2303 09008KT BECMG 2303/2306 19012KT

RJFF 22/06/2017 UTC

TAF RJFF 221106Z 2212/2318 15003KT 9999 FEW020 BECMG 2300/2303
32010KT BECMG 2309/2312 16003KT

RJFT 22/06/2017 UTC

TAF RJFT 221114Z 2212/2318 05004KT 8000 FEW010 BKN025 TEMPO
2212/2218 4000 BR TEMPO 2218/2221 4000 BR FEW003 BKN006
BKN015 BECMG 2303/2306 22006KT BECMG 2312/2315 05003KT

RJFU 22/06/2017 UTC

TAF RJFU 221111Z 2212/2318 15003KT 9000 FEW015 SCT025 BECMG
2300/2303 33005KT BECMG 2312/2315 14003KT

ROAH 22/06/2017 UTC

TAF ROAH 221105Z 2212/2318 20010KT 9999 FEW008 SCT015 TEMPO
2215/2221 FEW005 BKN007 TEMPO 2315/2318 FEW006 BKN009

RKSS 22/06/2017 UTC

TAF RKSS 221100Z 2212/2318 29005KT CAVOK
TN19/2221Z TX30/2306Z
BECMG 2222/2223 06005KT
BECMG 2302/2303 29007KT
BECMG 2311/2312 19005KT

RKSI 22/06/2017 UTC

TAF RKSI 221100Z 2212/2318 30006KT 6000 FEW010 SCT030
TN19/2221Z TX27/2305Z
BECMG 2215/2216 17006KT 3500 BR
TEMPO 2219/2222 0800 FG BKN003
BECMG 2300/2301 21007KT 6000 NSW
BECMG 2302/2303 27008KT
BECMG 2315/2316 16006KT 4200 BR

RKSM 22/06/2017 UTC

TAF RKSM 221100Z 2212/2318 26006KT 9999 SCT040 BECMG 2215/2216
26006KT 4800 BR SCT015 BECMG 2220/2221 26006KT 4800 BR
BKN015 BECMG 2300/2301 26006KT 8000 BR SCT015 TN19/2221Z
TX32/2306Z

RKPK 22/06/2017 UTC

TAF RKPK 221100Z 2212/2318 18006KT 9999 SCT030 SCT200
TN18/2221Z TX27/2306Z
BECMG 2214/2215 03006KT
BECMG 2219/2220 4800 BR
BECMG 2221/2222 9999 NSW
BECMG 2301/2302 18012KT

RKPC 22/06/2017 UTC

TAF RKPC 221100Z 2212/2318 19005KT 6000 NSC
TN19/2220Z TX25/2305Z
BECMG 2222/2223 03005KT
BECMG 2310/2311 09006KT

Indonesia, Pakistan, Singapore, India, Sri Lanka, United Arab Emirates

The availability of aerodrome forecasts from overseas locations is dependent on the regular international exchange of data. Some locations may at times be absent. If this problem persists, please advise webav@bom.gov.au

 back to top

WIII 22/06/2017 UTC

TAF WIII 221100Z 2212/2318 VRB03KT 7000 SCT021 TEMPO 2219/2222 SHRA
FEW015CB BECMG 2302/2304 06010KT TEMPO 2307/2310 VCTS FEW015CB BECMG
2310/2312 VRB03KT

WSSS 22/06/2017 UTC

TAF WSSS 221100Z 2212/2318 19008KT 9999 FEW018CB SCT020
TEMPO 2302/2306 3000 TSRA FEW012CB BKN015

VCBI 22/06/2017 UTC

TAF VCBI 220940Z 2212/2318 22012KT 9999
SCT016 TX31/2308Z TN27/2300Z
PROB40 TEMPO 2212/2217 2223/2303 6000 -SHRA
FEW012 SCT016 FEW020CB

VECC 22/06/2017 UTC

TAF VECC 221100Z 2212/2318 19005KT 3200 -RA HZ SCT008 BKN100
TEMPO 2306/2310 1500 TSRA SCT015 FEW025CB OVC090

VOMM 22/06/2017 UTC

TAF VOMM 221100Z 2212/2318 20010KT 6000 SCT020
TEMPO 2212/2218 4000 -TSRA/RA SCT018 FEW025CB BKN080
BECMG 2218/2219 18005KT 5000 HZ
BECMG 2303/2304 6000
TEMPO 2312/2318 SCT020 FEW025CB BKN100
BECMG 2317/2318 20010KT

VOTV 22/06/2017 UTC

TAF VOTV 221100Z 2212/2318 28010KT 5000 HZ SCT015 FEW025CB BKN080
TEMPO 2212/2216 28010G20KT 2000 TSRA RA BECMG 2217/2218 31005KT 4000
–RA HZ TEMPO 2222/2303 2000 RA BR BECMG 2304/2305 27010KT 5000 HZ
SCT015 SCT080 TEMPO 2310/2314 27010G20KT 2000 TSRA RA SCT015
FEW025CB BKN080

VABB 22/06/2017 UTC

TAF VABB 221100Z 2212/2318 23008G18KT 3000 -DZ HZ SCT018 SCT025
FEW025TCU BKN090
TEMPO 2212/2221 1500 TSRA SHRA BKN010 FEW030CB OVC080
BECMG 2215/2217 24008KT
BECMG 2222/2224 2000 -RA HZ
TEMPO 2222/2306 1500 TSRA SHRA BKN010 FEW030CB OVC080
BECMG 2303/2305 22008G18KT 3000 -DZ HZ
TEMPO 2306/2318 1500 TSRA SHRA BKN010 FEW030CB OVC080
BECMG 2314/2316 24008KT

VAAH 22/06/2017 UTC

TAF VAAH 221100Z 2212/2318 26006KT 4000 HZ-RA SCT020 FEW025TCU/CB
SCT080
TEMPO 2212/2216 25010G20KT 1500 -TSRA
BECMG 2301/2303 23005KT 3000 FU HZ SCT020 SCT080
BECMG 2304/2306 27008KT 6000 SCT020 FEW025CB SCT080
BECMG 2312/2314 24005KT 4000 HZ -RA

VILK 22/06/2017 UTC

TAF VILK 221100Z 2212/2318 VRB02KT 4000 HZ FEW020 SCT025
TEMPO 2113/2117 32010G20KT 1000 DS TSRA SCT020 FEW030CB BKN090
BECMG 2218/2220 VRB02KT 3000 HZ FEW020 SCT025 BKN090
BECMG 2301/2303 00000KT TEMPO 2305/2309 32010G20KT 1000 DS
TSRA SCT020 SCT025 FEW030CB OVC090
BECMG 2310/2312 VRB02KT 4000 HZ FEW020 SCT025 BKN100

VANP 22/06/2017 UTC

TAF VANP 221100Z 2212/2318 27010KT 5000 HZ -TSRA FEW020 SCT025
FEW030CB BKN100 BECMG 2218/2220 01005KT 3000 HZ -RA
BECMG 2302/2304 27005KT 5000 HZ FEW020 SCT100
BECMG 2312/2314 27010KT 4000 -TSRA FEW020 SCT025 FEW030CB BKN100

VRMM 22/06/2017 UTC

TAF VRMM 221100Z 2212/2318 25007KT 9999 FEW018 TEMPO 2213/2218
5000 -SHRA SCT017 FEW018CB

VOHS 22/06/2017 UTC

TAF VOHS 221100Z 2212/2318 28008KT 6000 SCT015 SCT025 TEMPO
2215/2220 06006KT 4000 -TSRA HZ SCT025 FEW030CB BKN080 TEMPO
2221/2303 32006KT 4000 -RA HZ FEW030CB BKN080 BECMG 2304/2305
29008KT 6000 SCT020 SCT100 BECMG 2308/2310 SCT020 SCT025 BKN090
TEMPO 2312/2318 28010KT 4000 -TSRA HZ FEW030CB BKN100

OPKC 22/06/2017 UTC

TAF OPKC 221000Z 2212/2318 23010G20KT 6000 BKN020 FM222100 24008G18KT
5000 DZ SCT018 BKN020 FM230600 23012G22KT 6000 BKN020

OBBI 22/06/2017 UTC

TAF OBBI 221100Z 2212/2318 33020KT 8000 NSC TEMPO 2212/2215
33022G32KT 3000 BLDU TEMPO 2219/2306 5000 DU

OMAA 22/06/2017 UTC

TAF OMAA 221100Z 2212/2318 31011KT 8000 NSC
BECMG 2221/2223 20005KT
PROB40 2223/2304 4000 HZ
PROB30 TEMPO 2301/2303 1500 BR
BECMG 2306/2308 32012KT

OMDB 22/06/2017 UTC

TAF OMDB 221101Z 2212/2318 32012KT 8000 NSC
BECMG 2218/2220 14005KT
PROB30 2300/2304 3000 HZ BKN008
BECMG 2306/2308 30012KT
BECMG 2315/2317 16005KT

OOMS 22/06/2017 UTC

TAF OOMS 221100Z 2212/2318 05010KT 8000 NSC BECMG 2218/2220 26007KT
BECMG 2306/2308 04012KT

OMSJ 22/06/2017 UTC

TAF OMSJ 221101Z 2212/2318 32013KT 8000 NSC
BECMG 2216/2218 12005KT
PROB30 2222/2304 3000 BR BKN005
BECMG 2307/2309 31013KT
BECMG 2315/2317 14005KT

Malawi, Mauritius, South Africa, Zambia, Zimbabwe

The availability of aerodrome forecasts from overseas locations is dependent on the regular international exchange of data. Some locations may at times be absent. If this problem persists, please advise webav@bom.gov.au

 back to top

FIMP 22/06/2017 UTC

TAF FIMP 221145Z 2212/2318 12010KT 9999 SCT017 PROB30 TEMPO 2215/2306
7000 -SHRA FEW010 BKN016 BKN050

FMEE 22/06/2017 UTC

TAF FMEE 221100Z 2212/2318 12015KT 9999 FEW025 SCT100 PROB40 TEMPO
2212/2215 10015G25KT SHRA PROB40 TEMPO 2307/2314 12015G25KT

FLKK

TAF not available.

FWKI 22/06/2017 UTC

TAF FWKI 220900Z 2212/2318 14008KT 9999 SCT030 BECMG 2214/2216
12006KT 9999 FEW040 SCT080 FM221700 09004KT CAVOK BECMG
2307/2309 15006KT 9999 FEW025 BECMG 2312/2314 10006KT 9999
SCT040

FAOR 22/06/2017 UTC

TAF FAOR 221000Z 2212/2318 30008KT CAVOK
BECMG 2216/2218 20008KT
BECMG 2306/2308 14005KT
BECMG 2310/2312 06005KT
TX21/2212ZTN07/2304Z

FVHA 22/06/2017 UTC

TAF FVHA 221000Z 2212/2318 15006KT CAVOK
BECMG 2306/2308 SCT030
FM231200 CAVOK

FAWK 22/06/2017 UTC

TAF FAWK 220900Z 2210/2218 30007KT CAVOK
BECMG 2212/2214 25010KT
TX22/2212ZTN10/2218Z

FABL 22/06/2017 UTC

TAF FABL 221000Z 2212/2312 25006KT CAVOK
FM230500 18008KT 9999 SCT010
TX20/2213ZTN03/2305Z

FALE 22/06/2017 UTC

TAF FALE 221000Z 2212/2318 08007KT CAVOK
FM221700 20015G25KT 9999 BKN020
BECMG 2304/2306 20015KT CAVOK
BECMG 2316/2318 24010KT BKN020
TX27/2212ZTN15/2304Z

YPCC 22/06/2017 UTC

TAF AMD YPCC 221113Z 2211/2312
13020KT 9999 -SHRA BKN020
TEMPO 2211/2312 3000 SHRA BKN008
RMK
T 25 26 26 26 Q 1013 1013 1013 1012

United States (includes Hawaii) and Mexican emergency/alternates

The availability of aerodrome forecasts from overseas locations is dependent on the regular international exchange of data. Some locations may at times be absent. If this problem persists, please advise webav@bom.gov.au

 back to top

PHNL 22/06/2017 UTC

TAF PHNL 221146Z 2212/2318 05005KT P6SM FEW030 SCT060
FM222000 05011G19KT P6SM FEW030 SCT060
FM230600 05008KT P6SM FEW030 SCT060

PHLI 22/06/2017 UTC

TAF PHLI 221146Z 2212/2312 08012KT P6SM VCSH SCT015 BKN040
FM230600 05012KT P6SM FEW025 SCT050

PHOG 22/06/2017 UTC

TAF PHOG 221146Z 2212/2312 09006KT P6SM FEW030 BKN060
FM222000 06018G24KT P6SM SCT060
FM230600 06009KT P6SM FEW045

PHTO 22/06/2017 UTC

TAF PHTO 221146Z 2212/2312 22004KT P6SM VCSH FEW030 BKN060
FM222000 04010KT P6SM SCT045 BKN090
FM230600 32004KT P6SM VCSH SCT020 OVC045

PKMJ 22/06/2017 UTC

TAF PKMJ 221120Z 2212/2312 09010KT P6SM VCSH SCT016 SCT040 BKN120

KLAX 22/06/2017 UTC

TAF AMD KLAX 221210Z 2212/2318 VRB03KT 5SM BR VCFG OVC008
FM221300 VRB03KT 4SM BR VCFG OVC004
TEMPO 2213/2215 1SM BR OVC002
FM221600 VRB03KT 6SM BR VCFG BKN007
FM221900 26010KT P6SM SCT006
FM230200 24008KT 6SM BR BKN006
FM231000 VRB03KT 4SM BR OVC005
FM231300 VRB03KT 1SM BR OVC003
FM231600 VRB03KT 5SM BR OVC008

KONT 22/06/2017 UTC

TAF KONT 221123Z 2212/2318 VRB05KT P6SM SKC
FM222100 26012G18KT P6SM SKC
FM230400 VRB05KT P6SM SKC
FM230900 VRB04KT 3SM BR SCT004
FM231400 VRB04KT 6SM HZ FEW007

KPMD 22/06/2017 UTC

TAF KPMD 221132Z 2212/2312 21008KT P6SM SKC
FM221900 23018G28KT P6SM SKC
FM230400 25010KT P6SM SKC

KSAN 22/06/2017 UTC

TAF KSAN 221123Z 2212/2318 VRB03KT 2SM BR OVC004
FM221630 VRB04KT P6SM SCT007
FM221900 27010KT P6SM SKC
FM230200 VRB04KT P6SM BKN007
FM231630 VRB04KT P6SM SCT010

KLAS 22/06/2017 UTC

TAF KLAS 221131Z 2212/2312 23008KT P6SM SKC
FM221500 VRB04KT P6SM SKC
FM222100 24012G20KT P6SM SKC
FM230300 21011KT P6SM SKC

KOAK 22/06/2017 UTC

TAF KOAK 221120Z 2212/2318 VRB05KT P6SM SKC
FM222100 31012KT P6SM SKC
FM230800 29009KT P6SM FEW008
FM231600 28007KT P6SM SKC

KSFO 22/06/2017 UTC

TAF KSFO 221120Z 2212/2318 29006KT P6SM SKC
FM221500 04008KT P6SM SKC
FM222100 34013KT P6SM SKC
FM230500 29009KT P6SM SKC
FM231000 26008KT P6SM FEW010
FM231600 28007KT P6SM SKC

KSMF 22/06/2017 UTC

TAF KSMF 221134Z 2212/2312 VRB05KT P6SM SKC
FM221500 33010KT P6SM SKC
FM230300 20010KT P6SM SKC
FM230600 15009KT P6SM SKC

KSCK 22/06/2017 UTC

TAF KSCK 221134Z 2212/2312 VRB05KT P6SM SKC
FM221500 31008KT P6SM SKC
FM230600 34005KT P6SM SKC

KFAT 22/06/2017 UTC

TAF KFAT 221120Z 2212/2312 31007KT P6SM SKC

KJFK 22/06/2017 UTC

TAF KJFK 221135Z 2212/2318 04006KT P6SM SCT250
FM221600 17010KT P6SM SCT250
FM221900 18014KT P6SM SCT070 BKN250
FM222300 18010KT P6SM BKN250
FM230300 19006KT P6SM BKN150
FM230900 19006KT P6SM VCSH FEW007 SCT050 BKN150
FM231500 20013KT 6SM HZ VCSH SCT030 SCT050 BKN150

KPHL 22/06/2017 UTC

TAF KPHL 221130Z 2212/2318 VRB04KT P6SM FEW050
FM221700 21006KT P6SM FEW040
FM222200 21007KT P6SM SCT040
FM230700 VRB03KT P6SM SCT100
FM231200 22008KT P6SM BKN090 BKN150 PROB30 2313/2317 4SM -TSRA
BKN015CB

KPIT 22/06/2017 UTC

TAF KPIT 221128Z 2212/2318 23005KT P6SM SCT050 BKN100
FM221900 21007KT P6SM VCTS BKN040CB
FM222200 22009KT P6SM BKN050
FM230800 20007KT P6SM -RA OVC025

KDEN 22/06/2017 UTC

TAF KDEN 221120Z 2212/2318 28013G21KT P6SM SCT120 BKN200
FM221330 30009KT P6SM SCT120
FM221700 03013G21KT P6SM SCT090 BKN200
FM222200 06015G22KT P6SM SCT090 BKN200 PROB30 2222/2303
VRB15G30KT -TSRA BKN060CB
FM230300 08011KT P6SM VCSH SCT060 BKN090
FM230600 05009KT P6SM VCSH SCT025 OVC060
TEMPO 2306/2308 BKN025
FM230800 03011KT P6SM VCSH BKN020 OVC040
FM231600 11009KT P6SM SCT025 BKN060

KMCI 22/06/2017 UTC

TAF KMCI 221129Z 2212/2312 18010KT P6SM SCT250
FM230200 18007KT P6SM SCT250
FM230600 35007KT P6SM VCTS BKN040CB

KDFW 22/06/2017 UTC

TAF KDFW 221130Z 2212/2318 03010KT P6SM SCT015 BKN300
TEMPO 2212/2216 BKN015
FM221700 03010KT P6SM BKN025
FM221800 01010KT P6SM BKN040
FM230400 13008KT P6SM FEW040 SCT250

KAUS 22/06/2017 UTC

TAF KAUS 221124Z 2212/2318 32005KT P6SM FEW050 BKN200
FM222200 VRB03KT P6SM SCT250
FM230300 18006KT P6SM SCT250
TEMPO 2311/2315 5SM BR SCT006
FM231500 18012KT P6SM FEW040

KELP 22/06/2017 UTC

TAF KELP 221129Z 2212/2312 VRB04KT P6SM FEW050 SCT110 BKN220
FM221700 26008KT P6SM FEW140 SCT250
FM222200 29011G17KT P6SM FEW100 SCT150
FM230300 30010KT P6SM SCT150

KIAH 22/06/2017 UTC

TAF KIAH 221120Z 2212/2318 31009KT P6SM VCSH OVC010
TEMPO 2212/2215 SHRA
FM221800 29010G16KT P6SM VCSH BKN025
FM222100 28007KT P6SM VCSH SCT025 BKN050
FM230000 21005KT P6SM OVC070
FM230900 18008KT P6SM OVC025
TEMPO 2313/2315 BKN015

KSAT 22/06/2017 UTC

TAF KSAT 221124Z 2212/2318 30007KT P6SM FEW050 SCT250
FM222300 16007KT P6SM SCT250
FM231500 17011KT P6SM FEW040

KTUS 22/06/2017 UTC

TAF KTUS 221133Z 2212/2312 19010KT P6SM FEW140
FM221800 29008KT P6SM SCT140
FM222100 30016G24KT P6SM SCT140
FM230300 28008KT P6SM SCT250
FM230900 17005KT P6SM SKC

MMCU 22/06/2017 UTC

TAF MMCU 220451Z 2206/2306 02005KT P6SM SKC
FM221800 03010KT P6SM SCT200
FM230500 34005KT P6SM SKC

MMHO 22/06/2017 UTC

TAF MMHO 220436Z 2206/2306 26005KT P6SM SCT020 SCT080 BKN200
TEMPO 2206/2209 6SM -TSRA BKN020CB
FM221800 24012KT P6SM SKC
FM230400 24005KT P6SM SKC

MMLT 22/06/2017 UTC

TAF MMLT 220439Z 2206/2306 13005KT P6SM SKC
FM221800 22010KT P6SM SKC
FM230300 03005KT P6SM SKC

MMSD 22/06/2017 UTC

TAF MMSD 220439Z 2206/2306 33005KT P6SM SKC
FM221900 15010KT P6SM SKC
FM230300 30005KT P6SM SKC

Papua New Guinea, Southwest Pacific

The availability of aerodrome forecasts from overseas locations is dependent on the regular international exchange of data. Some locations may at times be absent. If this problem persists, please advise webav@bom.gov.au

 back to top

NWWW 22/06/2017 UTC

TAF NWWW 221100Z 2212/2312 VRB02KT 9999 SCT030 SCT050 TEMPO 2212/2215 SHRA FEW025TCU BECMG 2222/2224 20010KT BECMG 2307/2309 VRB02KT

NFFN 22/06/2017 UTC

TAF NFFN 221120Z 2212/2312
08008KT 9999 SCT020 SCT045 BKN100
BECMG 2222/2224 29010KT
PROB40 TEMPO 2300/2306 31010G20KT 5000 TSRA FEW018CB
BECMG 2304/2306 VRB03KT

NFNA 22/06/2017 UTC

TAF NFNA 221119Z 2212/2312
05010KT 9999 -SHRA BKN018 BKN050
PROB30 TEMPO 2215/2224 4000 SHRA BKN015

NFTF 22/06/2017 UTC

TAF NFTF 221117Z 2212/2312
08010KT 9999 FEW008 SCT016 BKN050
PROB30 TEMPO 2306/2312 5000 TSRA FEW016CB

NSTU 22/06/2017 UTC

TAF NSTU 221146Z 2212/2312 11016KT P6SM VCSH SCT015 BKN035 OVC100
TEMPO 2211/2214 11019G29KT 5SM -SHRA BKN015 BKN035
FM230600 11010KT P6SM VCSH SCT015 BKN035 OVC100

NVVV 22/06/2017 UTC

TAF NVVV 221000Z 2212/2312 VRB02KT 9999 SCT020 OVC110
INTER 2212/2218 9000 -SHRA BKN018

NCRG 22/06/2017 UTC

TAF NCRG 221116Z 2212/2312
14010KT 9999 SCT018
PROB30 TEMPO 2212/2221 14015G25KT

NTAA 22/06/2017 UTC

TAF NTAA 221100Z 2212/2318 20015KT 9999 FEW020 BKN050

NTTG

TAF not available.

NTTO

TAF not available.

NSFA 22/06/2017 UTC

TAF NSFA 221118Z 2212/2312
09008KT 9999 FEW020 SCT040
PROB30 TEMPO 2212/2221 5000 TSRA FEW017CB

ANYN 22/06/2017 UTC

TAF ANYN 220907Z 2212/2312 05008KT 9999 SCT018 SCT140
T 26 25 26 29
Q 1010 1008 1009 1011

AGGH 22/06/2017 UTC

TAF AGGH 221110Z 2212/2312 VRB03KT 9999
SHRA FEW015 BKN090
FM222400 08007KT 9999 SHDZ FEW018 SCT028 SCT100
PROB40 INTER 2212/2218 4000 -SHRA FEW014 FEW015CB BKN025
T 24 23 23 25 Q 1012 1010 1009 1011

AGGM 22/06/2017 UTC

TAF AGGM 221110Z 2212/2312 VRB03KT 9999 SHDZ FEW015 SCT090
FM222300 09008KT 9999 SHDZ FEW017 SCT027 SCT100
PROB40 INTER 2212/2218 7000 SHDZ FEW014 FEW015CB SCT025
Q 1012 1010 1009 1011

AGGN 22/06/2017 UTC

TAF AGGN 221110Z 2212/2312 VRB03KT 9999 SHDZ FEW015 SCT090
FM222300 11010KT 9999 SHDZ FEW017 SCT027 SCT100
PROB40 INTER 2212/2218 7000 SHDZ FEW014 FEW015CB SCT025
Q 1012 1010 1009 1011

AYPY 22/06/2017 UTC

TAF AYPY 220905Z 2212/2312 16015KT 9999 SCT040
FM221800 16006KT 9999 SCT140
FM222200 16015KT 9999 FEW018 SCT140

AYNZ 21/06/2017 UTC

TAF AYNZ 211558Z 2118/2208 09008KT 9999 SCT018 BKN140 RMK Q 1009 1010
1012 1011

AYMD

TAF not available.

AYMH

TAF not available.

AYTA

TAF not available.

PKMJ 22/06/2017 UTC

TAF PKMJ 221120Z 2212/2312 09010KT P6SM VCSH SCT016 SCT040 BKN120

NGTA 22/06/2017 UTC

TAF NGTA 221119Z 2212/2312
06009KT 9999 FEW018 SCT040
PROB30 TEMPO 2212/2224 5000 TSRA FEW016CB

PTRO 22/06/2017 UTC

TAF PTRO 221120Z 2212/2312 VRB05KT P6SM VCSH FEW016 SCT120

YLHI 22/06/2017 UTC

TAF YLHI 221109Z 2212/2312
20014KT 9999 -SHRA SCT020 BKN035
FM222000 19010KT 9999 -SHRA SCT020 BKN040
FM230000 22008KT 9999 SCT040
RMK
T 17 17 16 17 Q 1021 1020 1019 1020

YSNF 22/06/2017 UTC

TAF YSNF 221109Z 2212/2312
23015G25KT 9999 -SHRA BKN012
FM221500 22020G30KT 9999 -SHRA SCT012 BKN020
FM230000 22020G30KT 9999 -SHRA SCT025 BKN035
INTER 2212/2300 5000 SHRA BKN006
RMK FM221200 MOD TURB BLW 5000FT TILL222200
T 17 17 17 18 Q 1010 1010 1011 1013

Indonesia, Timor Leste, Papua New Guinea

The availability of aerodrome forecasts from overseas locations is dependent on the regular international exchange of data. Some locations may at times be absent. If this problem persists, please advise webav@bom.gov.au

 back to top

WAAA 22/06/2017 UTC

TAF WAAA 221100Z 2212/2318 13003KT 8000 FEW020 SCT100 BECMG 2302/2304 30010KT 9000 SCT019
BECMG 2310/2312 14003KT 8000

WAMM 22/06/2017 UTC

TAF WAMM 221100Z 2212/2318 10002KT 9000 SCT020
PROB40 TEMPO 2216/2220 6000 -RA SCT018
BECMG 2223/2301 VRB02KT

WAMP

TAF not available.

WAJJ 22/06/2017 UTC

TAF WAJJ 221100Z 2212/2312 00000KT 9999 SCT013
BECMG 2217/2219 SCT010
BECMG 2221/2223 13004KT SCT014
BECMG 2300/2302 13009KT
TEMPO 2304/2307 VCSH FEW012CB FEW013
BECMG 2309/2311 00000KT

WAPP 22/06/2017 UTC

TAF WAPP 221100Z 2212/2312 32006KT 9000 BKN015
TEMPO 2217/2219 6000 RA

WABB 22/06/2017 UTC

TAF WABB 221100Z 2212/2318 03007KT 9999 SCT018
TEMPO 2215/2222 5000 RA FEW017CB
BECMG 2222/2300 26008KT
TEMPO 2301/2307 5000 RA FEW017CB

WPDL 22/06/2017 UTC

TAF WPDL 220604Z 2208/2220
03008KT 9999 SCT040
FM221200 15006KT 9999 SCT030
RMK
T 30 27 26 25 Q 1011 1013 1013 1012

WATT 22/06/2017 UTC

TAF WATT 221100Z 2212/2312 11008KT 9999 FEW020
TEMPO 2303/2308 12017KT

WIII 22/06/2017 UTC

TAF WIII 221100Z 2212/2318 VRB03KT 7000 SCT021 TEMPO 2219/2222 SHRA
FEW015CB BECMG 2302/2304 06010KT TEMPO 2307/2310 VCTS FEW015CB BECMG
2310/2312 VRB03KT

WIHH 22/06/2017 UTC

TAF WIHH 221100Z 2212/2312 05008KT 6000 SCT018
BECMG 2215/2217 22004KT 5000 HZ SCT020
TEMPO 2218/2221 30008KT 3000 -RA BKN017
BECMG 2301/2303 12006KT 6000 SCT022

WIMM 22/06/2017 UTC

TAF WIMM 221100Z 2212/2312 VRB05KT 4000 HZ FEW017CB SCT018
TEMPO 2214/2218 -TSRA
BECMG 2301/2303 03008KT 8000 NSW SCT018

WARR 22/06/2017 UTC

TAF WARR 221100Z 2212/2312 04005KT 7000 SCT020
TEMPO 2222/2300 28004KT 4000 HZ FEW020
BECMG 2300/2302 10015KT 9999 FEW020
PROB40 TEMPO 2308/2311 8000 RA SCT018CB

WADD 22/06/2017 UTC

TAF WADD 221100Z 2212/2312 09010KT 9999 SCT016
BECMG 2223/2301 10015KT

AYPY 22/06/2017 UTC

TAF AYPY 220905Z 2212/2312 16015KT 9999 SCT040
FM221800 16006KT 9999 SCT140
FM222200 16015KT 9999 FEW018 SCT140

AYNZ 21/06/2017 UTC

TAF AYNZ 211558Z 2118/2208 09008KT 9999 SCT018 BKN140 RMK Q 1009 1010
1012 1011

AYMH

TAF not available.

AYMD

TAF not available.

AYHK

TAF not available.

AYTK

TAF not available.

AYVN

TAF not available.

AYWK

TAF not available.

AYGA

TAF not available.

AYDU

TAF not available.

AYMS

TAF not available.

AYRB

TAF not available.

AYTB

TAF not available.

AYKI

TAF not available.

AYKT

TAF not available.

AYBK

TAF not available.

AYKM

TAF not available.

AYKY

TAF not available.

AYMO

TAF not available.

AYKV

TAF not available.

Accessing this Service

By entering this site, you acknowledge that this information is produced solely for use by the aviation industry, and you are aware that any information for the purposes of flight planning should be obtained from Airservices Australia.